LGMT/MJT METAR and TAF weather

Enter ICAO airport designator
Station Type Date Time Source
LGMT METAR 2019/04/24 21:50 UTC NOAA

LGMT 242150Z VRB03KT 9999 FEW030 16/06 Q1024


Station Type Date Time Source
LGMT Decoded METAR 2019/04/24 21:50 UTC NOAA

Mytilini Airport , Greece (LGMT) 39-04N 026-36E 5M
Apr 24, 2019 - 05:50 PM EDT / 2019.04.24 2150 UTC
Wind: Variable at 3 MPH (3 KT):0
Visibility: greater than 7 mile(s):0
Sky conditions: mostly clear
Temperature: 60 F (16 C)
Dew Point: 42 F (6 C)
Relative Humidity: 51%
Pressure (altimeter): 30.24 in. Hg (1024 hPa)
ob: LGMT 242150Z VRB03KT 9999 FEW030 16/06 Q1024
cycle: 22

Station Type Date Time Source
LGMT TAF 2012/09/21 03:06 UTC NOAA

TAF LGMT 210200Z 2103/2115 VRB05KT 9999 SCT020
BECMG 2103/2105 30015KT PROB30
TEMPO 2103/2106 7000 RA SCT018 BKN030
BECMG 2107/2109 29012KT

Example: see airport list